Time;durP1;ratioP1;P1;durP2;ratioP2;P2;SDS_P1;SDS_P2;PMS_P1;PMS_P2;Temp;Humidity;BMP_temperature;BMP_pressure;BME280_temperature;BME280_humidity;BME280_pressure;Samples;Min_cycle;Max_cycle;Signal;HPM_P1;HPM_P2
2021/08/25 00:00:43;;;;;;;5.70;3.27;;;16.40;1.00;;;;;;5022295;28;20240;-50
2021/08/25 00:03:11;;;;;;;5.37;3.43;;;16.50;1.00;;;;;;5022996;28;20217;-50
2021/08/25 00:05:38;;;;;;;7.27;3.47;;;16.30;99.90;;;;;;5024318;28;20251;-50
2021/08/25 00:08:05;;;;;;;6.13;3.43;;;16.30;1.00;;;;;;5023153;28;20197;-50
2021/08/25 00:10:32;;;;;;;6.20;3.03;;;16.20;1.00;;;;;;5023795;28;20334;-50
2021/08/25 00:13:03;;;;;;;5.40;3.80;;;16.10;99.90;;;;;;5020744;28;20297;-50
2021/08/25 00:15:29;;;;;;;6.87;2.93;;;16.10;99.90;;;;;;5023860;28;20298;-50
2021/08/25 00:17:56;;;;;;;5.73;3.10;;;16.20;1.00;;;;;;5022940;28;20215;-50
2021/08/25 00:20:23;;;;;;;9.73;3.80;;;16.20;1.00;;;;;;5020992;28;20298;-50
2021/08/25 00:22:50;;;;;;;6.03;3.37;;;16.20;1.00;;;;;;5023941;28;20400;-51
2021/08/25 00:25:17;;;;;;;5.13;3.37;;;16.20;99.90;;;;;;5021106;28;20195;-50
2021/08/25 00:27:44;;;;;;;5.23;3.50;;;16.20;13.10;;;;;;5022259;28;20770;-50
2021/08/25 00:30:11;;;;;;;4.83;3.30;;;16.10;1.00;;;;;;5021803;28;20200;-51
2021/08/25 00:32:38;;;;;;;5.70;3.60;;;16.00;99.90;;;;;;5023521;28;20254;-50
2021/08/25 00:35:05;;;;;;;4.80;3.37;;;15.90;1.00;;;;;;5021116;28;20718;-50
2021/08/25 00:37:32;;;;;;;5.07;3.40;;;16.00;1.00;;;;;;5023399;28;20272;-50
2021/08/25 00:39:59;;;;;;;7.30;4.07;;;16.00;1.00;;;;;;5022820;28;20232;-50
2021/08/25 00:42:26;;;;;;;8.13;4.17;;;16.00;1.00;;;;;;5024084;28;20450;-50
2021/08/25 00:44:53;;;;;;;5.13;3.63;;;15.90;1.00;;;;;;5022219;28;20605;-50
2021/08/25 00:47:20;;;;;;;5.57;4.10;;;15.80;1.00;;;;;;5021370;28;20315;-50
2021/08/25 00:49:47;;;;;;;7.47;4.43;;;15.80;1.00;;;;;;5015983;28;20222;-50
2021/08/25 00:52:13;;;;;;;5.83;3.40;;;15.70;1.00;;;;;;5016647;28;20300;-50
2021/08/25 00:54:40;;;;;;;7.80;4.20;;;15.70;1.00;;;;;;5014869;28;20290;-50
2021/08/25 00:57:07;;;;;;;7.67;4.03;;;15.70;1.00;;;;;;5017160;28;20218;-50
2021/08/25 00:59:34;;;;;;;6.03;4.00;;;15.50;1.00;;;;;;5015988;28;20209;-50
2021/08/25 01:02:15;;;;;;;7.60;3.97;;;15.60;1.00;;;;;;5014825;28;20270;-50
2021/08/25 01:04:52;;;;;;;7.43;3.93;;;15.60;1.00;;;;;;5014846;28;20208;-50
2021/08/25 01:07:27;;;;;;;5.63;4.07;;;15.60;1.00;;;;;;5017313;28;20583;-50
2021/08/25 01:09:55;;;;;;;6.53;4.63;;;15.60;1.00;;;;;;5019540;28;20307;-50
2021/08/25 01:12:24;;;;;;;5.23;3.73;;;15.70;1.00;;;;;;5015074;28;20292;-50
2021/08/25 01:14:51;;;;;;;8.03;3.97;;;15.70;1.00;;;;;;5015629;28;20234;-50
2021/08/25 01:17:24;;;;;;;6.77;3.63;;;15.60;1.00;;;;;;5016741;28;20297;-50
2021/08/25 01:20:03;;;;;;;5.00;4.10;;;15.60;1.00;;;;;;5015897;28;20432;-50
2021/08/25 01:22:30;;;;;;;4.60;3.77;;;15.80;1.00;;;;;;5019357;28;20211;-50
2021/08/25 01:24:58;;;;;;;6.50;4.43;;;15.70;1.00;;;;;;5015549;28;20361;-50
2021/08/25 01:27:28;;;;;;;6.80;4.23;;;15.70;1.00;;;;;;5016072;28;20333;-50
2021/08/25 01:29:57;;;;;;;8.23;4.07;;;15.60;1.00;;;;;;5019337;28;20199;-50
2021/08/25 01:32:24;;;;;;;6.07;4.13;;;15.30;1.00;;;;;;5020001;28;20230;-50
2021/08/25 01:34:57;;;;;;;6.77;4.33;;;15.40;1.00;;;;;;5014323;28;20731;-50
2021/08/25 01:37:25;;;;;;;6.77;4.70;;;15.40;1.00;;;;;;5014339;28;20689;-50
2021/08/25 01:39:53;;;;;;;7.00;4.60;;;15.30;1.00;;;;;;5018129;28;20291;-50
2021/08/25 01:42:21;;;;;;;8.07;4.57;;;15.20;1.00;;;;;;5013297;28;20233;-50
2021/08/25 01:44:51;;;;;;;6.60;3.93;;;15.20;1.00;;;;;;5016677;28;20215;-51
2021/08/25 01:47:20;;;;;;;6.13;4.20;;;15.30;1.00;;;;;;5016842;28;20222;-50
2021/08/25 01:49:47;;;;;;;6.50;4.20;;;15.40;1.00;;;;;;5013516;28;20315;-51
2021/08/25 01:52:16;;;;;;;6.03;4.27;;;15.50;1.00;;;;;;5017335;28;20325;-50
2021/08/25 01:54:50;;;;;;;5.73;4.23;;;15.50;1.00;;;;;;5011760;28;20761;-51
2021/08/25 01:57:17;;;;;;;7.67;4.23;;;15.60;1.00;;;;;;5006275;28;20350;-50
2021/08/25 01:59:44;;;;;;;6.90;4.57;;;15.70;1.00;;;;;;5014073;28;20301;-50
2021/08/25 02:02:11;;;;;;;6.23;4.13;;;15.70;1.00;;;;;;5014828;28;20391;-50
2021/08/25 02:04:38;;;;;;;6.13;3.80;;;15.70;1.00;;;;;;5014344;28;20221;-50
2021/08/25 02:07:05;;;;;;;5.77;4.03;;;15.70;1.00;;;;;;5015492;28;20295;-50
2021/08/25 02:09:32;;;;;;;6.00;3.70;;;15.40;1.00;;;;;;5011625;28;20266;-50
2021/08/25 02:11:59;;;;;;;6.73;4.10;;;15.40;1.00;;;;;;5019970;28;20290;-50
2021/08/25 02:14:26;;;;;;;6.73;4.40;;;15.30;1.00;;;;;;5013187;28;21030;-49
2021/08/25 02:16:53;;;;;;;7.00;4.17;;;15.30;1.00;;;;;;5029361;28;20606;-50
2021/08/25 02:19:19;;;;;;;8.33;4.63;;;15.30;1.00;;;;;;5014350;28;20212;-49
2021/08/25 02:21:46;;;;;;;5.97;4.43;;;15.30;1.00;;;;;;5016082;28;20309;-50
2021/08/25 02:24:13;;;;;;;6.57;4.40;;;15.40;1.00;;;;;;5013252;28;22488;-50
2021/08/25 02:26:40;;;;;;;6.43;4.77;;;15.30;1.00;;;;;;5013182;28;20202;-50
2021/08/25 02:29:07;;;;;;;7.03;4.10;;;15.30;1.00;;;;;;5017062;28;20305;-50
2021/08/25 02:31:33;;;;;;;7.03;4.40;;;15.30;1.00;;;;;;5013607;28;20712;-50
2021/08/25 02:34:00;;;;;;;6.77;4.10;;;15.40;1.00;;;;;;5015680;28;20296;-50
2021/08/25 02:36:27;;;;;;;5.77;4.20;;;15.40;1.00;;;;;;5015744;28;20220;-50
2021/08/25 02:38:54;;;;;;;6.50;4.13;;;15.20;1.00;;;;;;5016393;28;20228;-50
2021/08/25 02:41:21;;;;;;;7.03;4.00;;;15.30;1.00;;;;;;5019213;28;20228;-49
2021/08/25 02:43:48;;;;;;;6.20;4.20;;;15.40;1.00;;;;;;5017935;28;20244;-50
2021/08/25 02:46:15;;;;;;;5.63;3.93;;;15.40;1.00;;;;;;5018296;28;20621;-50
2021/08/25 02:48:42;;;;;;;5.73;4.20;;;15.50;1.00;;;;;;5014266;28;20296;-49
2021/08/25 02:51:09;;;;;;;7.97;4.33;;;15.50;1.00;;;;;;5012240;28;20289;-50
2021/08/25 02:53:36;;;;;;;9.87;5.17;;;15.50;1.00;;;;;;5015682;28;20298;-49
2021/08/25 02:56:03;;;;;;;8.60;4.47;;;15.50;1.00;;;;;;5008181;28;20302;-50
2021/08/25 02:58:30;;;;;;;5.40;3.93;;;15.50;1.00;;;;;;5013053;28;20312;-49
2021/08/25 03:00:58;;;;;;;9.17;5.07;;;15.50;1.00;;;;;;5015801;28;20700;-50
2021/08/25 03:03:26;;;;;;;5.77;3.80;;;15.50;1.00;;;;;;5007253;28;20362;-49
2021/08/25 03:05:53;;;;;;;6.23;4.43;;;15.50;1.00;;;;;;5007150;28;20202;-50
2021/08/25 03:08:19;;;;;;;6.50;4.50;;;15.40;1.00;;;;;;5013165;28;20194;-50
2021/08/25 03:10:46;;;;;;;7.00;4.50;;;15.30;1.00;;;;;;5012884;28;20334;-50
2021/08/25 03:13:13;;;;;;;5.83;4.30;;;15.20;1.00;;;;;;5014906;28;20198;-52
2021/08/25 03:15:40;;;;;;;5.33;4.47;;;15.20;1.00;;;;;;5015957;28;20306;-51
2021/08/25 03:18:07;;;;;;;6.93;4.83;;;15.10;1.00;;;;;;5014044;28;20208;-51
2021/08/25 03:20:33;;;;;;;9.07;5.10;;;15.10;1.00;;;;;;5013125;28;20294;-50
2021/08/25 03:23:00;;;;;;;7.70;4.70;;;15.10;1.00;;;;;;5013293;28;20210;-50
2021/08/25 03:25:27;;;;;;;8.17;4.57;;;15.00;1.00;;;;;;5014007;28;20301;-51
2021/08/25 03:27:54;;;;;;;6.83;4.83;;;15.00;1.00;;;;;;5015665;28;20288;-50
2021/08/25 03:30:21;;;;;;;6.03;4.40;;;14.90;38.70;;;;;;5016862;28;20295;-50
2021/08/25 03:32:47;;;;;;;7.03;4.50;;;14.90;41.90;;;;;;5014265;28;20226;-50
2021/08/25 03:35:15;;;;;;;6.73;4.63;;;14.90;39.50;;;;;;5015373;28;20302;-50
2021/08/25 03:37:41;;;;;;;6.73;4.63;;;14.90;72.40;;;;;;5015851;28;20222;-50
2021/08/25 03:40:09;;;;;;;10.13;4.80;;;15.00;31.40;;;;;;5015730;28;20207;-50
2021/08/25 03:42:36;;;;;;;8.00;5.03;;;15.10;1.00;;;;;;5016045;28;20670;-50
2021/08/25 03:45:04;;;;;;;7.53;5.20;;;15.20;1.00;;;;;;5012603;28;20301;-50
2021/08/25 03:47:31;;;;;;;10.57;4.87;;;15.20;1.00;;;;;;5016127;28;20315;-50
2021/08/25 03:49:59;;;;;;;7.30;5.20;;;15.20;1.00;;;;;;5014270;28;20383;-50
2021/08/25 03:52:26;;;;;;;6.87;5.17;;;15.20;1.00;;;;;;5013990;28;20249;-50
2021/08/25 03:54:53;;;;;;;6.90;4.80;;;15.10;7.20;;;;;;5011094;28;20274;-50
2021/08/25 03:57:20;;;;;;;6.97;4.63;;;15.10;15.10;;;;;;5007036;28;20298;-50
2021/08/25 03:59:46;;;;;;;7.37;4.90;;;15.10;15.50;;;;;;5014119;28;20348;-50
2021/08/25 04:02:13;;;;;;;8.63;5.03;;;15.10;55.10;;;;;;5015504;28;20299;-50
2021/08/25 04:04:40;;;;;;;8.80;5.17;;;15.00;47.70;;;;;;5013450;28;20252;-50
2021/08/25 04:07:07;;;;;;;10.10;5.70;;;14.90;58.60;;;;;;5012698;28;20201;-50
2021/08/25 04:09:34;;;;;;;7.07;4.83;;;14.90;96.90;;;;;;5013077;28;20300;-51
2021/08/25 04:12:00;;;;;;;6.60;5.30;;;14.90;99.90;;;;;;5014392;28;20301;-50
2021/08/25 04:14:27;;;;;;;9.10;5.23;;;14.90;99.90;;;;;;5018831;28;20704;-50
2021/08/25 04:16:54;;;;;;;8.30;5.60;;;15.00;91.20;;;;;;5021573;28;20312;-50
2021/08/25 04:19:21;;;;;;;11.03;5.90;;;15.00;91.80;;;;;;5020104;28;20421;-50
2021/08/25 04:21:48;;;;;;;7.63;5.10;;;15.00;96.20;;;;;;5022388;28;20201;-50
2021/08/25 04:24:14;;;;;;;10.37;5.90;;;15.00;99.90;;;;;;5016494;28;20341;-50
2021/08/25 04:26:41;;;;;;;8.80;5.33;;;15.00;94.20;;;;;;5023355;28;20239;-51
2021/08/25 04:29:08;;;;;;;10.23;6.03;;;15.00;99.90;;;;;;5019798;28;20332;-51
2021/08/25 04:31:35;;;;;;;8.00;5.70;;;14.90;99.90;;;;;;5020822;28;20706;-50
2021/08/25 04:34:02;;;;;;;7.23;5.80;;;14.90;99.90;;;;;;5019037;28;20216;-50
2021/08/25 04:36:28;;;;;;;7.30;5.30;;;14.90;99.90;;;;;;5021634;28;20214;-50
2021/08/25 04:38:55;;;;;;;9.47;6.20;;;14.90;99.90;;;;;;5023229;28;20213;-50
2021/08/25 04:41:22;;;;;;;10.13;6.27;;;14.80;99.90;;;;;;5019514;28;20215;-50
2021/08/25 04:43:49;;;;;;;9.47;5.27;;;14.80;99.90;;;;;;5018434;28;20276;-50
2021/08/25 04:46:17;;;;;;;7.87;5.87;;;14.90;99.90;;;;;;5019825;28;20222;-50
2021/08/25 04:48:44;;;;;;;8.07;5.80;;;14.90;99.90;;;;;;5018180;28;20299;-50
2021/08/25 04:51:12;;;;;;;9.23;6.10;;;14.90;99.90;;;;;;5008597;28;20679;-50
2021/08/25 04:53:39;;;;;;;7.73;5.10;;;14.80;99.90;;;;;;5019186;28;20622;-50
2021/08/25 04:56:06;;;;;;;7.53;5.03;;;14.90;99.90;;;;;;5017374;28;21207;-51
2021/08/25 04:58:34;;;;;;;6.93;5.93;;;14.90;92.90;;;;;;5019005;28;20243;-51
2021/08/25 05:01:03;;;;;;;8.60;6.13;;;14.80;97.50;;;;;;5018301;28;20275;-50
2021/08/25 05:03:30;;;;;;;8.97;5.67;;;14.80;99.90;;;;;;5020752;28;20639;-50
2021/08/25 05:05:57;;;;;;;8.50;5.80;;;14.80;99.90;;;;;;5017339;28;21733;-51
2021/08/25 05:08:26;;;;;;;8.40;5.57;;;14.90;98.80;;;;;;5020640;28;20243;-50
2021/08/25 05:10:53;;;;;;;7.77;5.73;;;14.90;99.70;;;;;;5018113;28;20234;-51
2021/08/25 05:13:20;;;;;;;8.93;6.20;;;14.80;99.90;;;;;;5019730;28;20240;-50
2021/08/25 05:15:47;;;;;;;9.77;5.63;;;14.80;91.60;;;;;;5015880;28;20383;-50
2021/08/25 05:18:13;;;;;;;7.93;6.10;;;14.90;93.80;;;;;;5016821;28;20313;-50
2021/08/25 05:20:41;;;;;;;7.87;5.87;;;14.80;99.90;;;;;;5017219;28;20276;-51
2021/08/25 05:23:08;;;;;;;10.03;5.70;;;14.80;93.20;;;;;;5017988;28;20614;-50
2021/08/25 05:25:34;;;;;;;9.63;6.33;;;14.90;45.80;;;;;;5015328;28;20458;-50
2021/08/25 05:28:01;;;;;;;7.90;6.47;;;14.80;70.10;;;;;;5014832;28;20312;-50
2021/08/25 05:30:28;;;;;;;9.23;5.70;;;14.80;89.70;;;;;;5018070;28;20829;-51
2021/08/25 05:32:55;;;;;;;9.97;5.97;;;14.90;67.80;;;;;;5016429;28;20251;-50
2021/08/25 05:35:23;;;;;;;8.23;5.10;;;14.90;54.00;;;;;;5015189;28;20300;-51
2021/08/25 05:37:50;;;;;;;9.23;6.10;;;14.80;72.90;;;;;;5022013;28;20292;-50
2021/08/25 05:40:18;;;;;;;7.30;5.37;;;14.80;44.80;;;;;;5020161;28;20239;-50
2021/08/25 05:42:45;;;;;;;9.90;5.87;;;14.80;15.10;;;;;;5018069;28;20614;-51
2021/08/25 05:45:13;;;;;;;7.43;5.10;;;14.70;12.80;;;;;;5014691;28;20309;-50
2021/08/25 05:47:40;;;;;;;9.33;5.20;;;14.90;10.20;;;;;;5016847;28;20639;-50
2021/08/25 05:50:08;;;;;;;9.80;5.90;;;15.00;1.00;;;;;;5016272;28;20256;-50
2021/08/25 05:52:35;;;;;;;9.70;5.80;;;14.90;1.00;;;;;;5020237;28;20246;-50
2021/08/25 05:55:02;;;;;;;7.87;6.23;;;15.10;1.00;;;;;;5014738;28;20207;-50
2021/08/25 05:57:29;;;;;;;6.97;5.50;;;15.10;1.00;;;;;;5020481;28;20259;-50
2021/08/25 05:59:56;;;;;;;9.83;5.83;;;15.10;1.00;;;;;;5016890;28;20211;-50
2021/08/25 06:02:23;;;;;;;8.47;6.10;;;15.10;1.00;;;;;;5010783;28;20261;-51
2021/08/25 06:04:50;;;;;;;8.83;5.90;;;15.00;1.00;;;;;;5012185;28;20213;-50
2021/08/25 06:07:17;;;;;;;7.83;5.73;;;15.00;1.00;;;;;;5014500;28;20224;-51
2021/08/25 06:09:44;;;;;;;9.80;5.50;;;15.00;1.00;;;;;;5017046;28;20241;-50
2021/08/25 06:12:11;;;;;;;7.63;6.20;;;15.10;1.00;;;;;;5019629;28;20297;-51
2021/08/25 06:14:38;;;;;;;8.43;5.23;;;15.20;1.00;;;;;;5015101;28;20340;-50
2021/08/25 06:17:05;;;;;;;10.33;6.33;;;15.40;1.00;;;;;;5018493;28;20214;-50
2021/08/25 06:19:32;;;;;;;9.73;5.77;;;15.40;1.00;;;;;;5015333;28;20273;-51
2021/08/25 06:21:59;;;;;;;8.93;5.80;;;15.40;1.00;;;;;;5017616;28;20297;-50
2021/08/25 06:24:26;;;;;;;8.23;5.93;;;15.50;1.00;;;;;;5014069;28;20442;-50
2021/08/25 06:26:53;;;;;;;8.00;5.57;;;15.70;1.00;;;;;;5018192;28;20267;-50
2021/08/25 06:29:19;;;;;;;10.70;6.17;;;15.70;1.00;;;;;;5014614;28;20685;-50
2021/08/25 06:31:46;;;;;;;8.30;5.37;;;15.70;99.90;;;;;;5016327;28;20287;-50
2021/08/25 06:34:13;;;;;;;8.73;6.07;;;15.80;1.00;;;;;;5014226;28;20212;-50
2021/08/25 06:36:40;;;;;;;7.40;5.17;;;15.90;99.90;;;;;;5014264;28;20326;-50
2021/08/25 06:39:07;;;;;;;9.53;5.90;;;15.90;99.90;;;;;;5011444;28;20205;-50
2021/08/25 06:41:34;;;;;;;12.13;5.93;;;15.90;1.00;;;;;;5015832;28;20687;-50
2021/08/25 06:44:01;;;;;;;6.07;5.00;;;16.00;1.00;;;;;;5017240;28;20252;-50
2021/08/25 06:46:28;;;;;;;7.30;5.13;;;16.10;1.00;;;;;;5009984;28;20326;-50
2021/08/25 06:48:55;;;;;;;7.87;5.20;;;16.30;1.00;;;;;;5011895;28;20199;-51
2021/08/25 06:51:21;;;;;;;7.83;5.80;;;16.30;1.00;;;;;;5016743;28;20806;-51
2021/08/25 06:53:48;;;;;;;6.83;5.37;;;16.60;99.90;;;;;;5013751;28;20254;-50
2021/08/25 06:56:16;;;;;;;7.50;5.53;;;16.70;99.90;;;;;;5018550;28;20235;-51
2021/08/25 06:58:43;;;;;;;12.23;6.60;;;16.70;1.00;;;;;;5017175;28;20416;-53
2021/08/25 07:01:10;;;;;;;8.40;5.67;;;16.80;1.00;;;;;;5017829;28;20277;-51
2021/08/25 07:03:37;;;;;;;9.63;5.40;;;16.80;1.00;;;;;;5018176;28;20238;-51
2021/08/25 07:06:04;;;;;;;8.73;5.87;;;16.70;99.90;;;;;;5012252;28;20221;-51
2021/08/25 07:08:30;;;;;;;8.20;5.60;;;17.00;1.00;;;;;;5019443;28;20977;-51
2021/08/25 07:10:57;;;;;;;7.77;5.03;;;17.00;99.90;;;;;;5016033;28;20202;-50
2021/08/25 07:13:24;;;;;;;7.83;5.80;;;17.30;1.00;;;;;;5013648;28;20347;-51
2021/08/25 07:15:51;;;;;;;8.13;5.70;;;17.40;1.00;;;;;;5014913;28;20292;-51
2021/08/25 07:18:18;;;;;;;7.10;5.50;;;17.40;1.00;;;;;;5017095;28;20372;-51
2021/08/25 07:20:45;;;;;;;7.77;5.30;;;17.40;99.90;;;;;;5015491;28;20455;-51
2021/08/25 07:23:12;;;;;;;5.83;4.60;;;17.20;99.90;;;;;;5016082;28;20274;-51
2021/08/25 07:25:39;;;;;;;9.10;5.50;;;17.20;99.90;;;;;;5015403;28;20358;-51
2021/08/25 07:28:07;;;;;;;7.43;5.33;;;17.40;1.00;;;;;;5017554;28;20269;-51
2021/08/25 07:30:33;;;;;;;8.23;5.40;;;17.60;87.40;;;;;;5018885;28;20257;-51
2021/08/25 07:33:01;;;;;;;6.67;5.30;;;17.90;1.00;;;;;;5018920;28;20637;-50
2021/08/25 07:35:29;;;;;;;7.53;4.90;;;17.90;1.00;;;;;;5014924;28;20258;-51
2021/08/25 07:37:57;;;;;;;6.30;5.03;;;18.10;1.00;;;;;;5015849;28;20212;-51
2021/08/25 07:40:24;;;;;;;8.07;5.53;;;18.40;1.00;;;;;;5018491;28;20295;-51
2021/08/25 07:42:51;;;;;;;7.13;5.07;;;18.10;99.90;;;;;;5014873;28;20581;-51
2021/08/25 07:45:18;;;;;;;6.90;4.73;;;18.30;99.90;;;;;;5031376;28;20213;-51
2021/08/25 07:47:46;;;;;;;7.37;4.97;;;18.10;1.00;;;;;;5017455;28;20232;-51
2021/08/25 07:50:14;;;;;;;6.90;5.20;;;18.40;1.00;;;;;;5021140;28;20203;-51
2021/08/25 07:52:41;;;;;;;7.57;5.20;;;18.50;1.00;;;;;;5020591;28;20205;-51
2021/08/25 07:55:08;;;;;;;9.20;5.23;;;18.40;99.90;;;;;;5016185;28;20307;-51
2021/08/25 07:57:35;;;;;;;6.60;4.50;;;18.40;1.00;;;;;;5026535;28;20240;-51
2021/08/25 08:00:03;;;;;;;6.03;4.63;;;18.50;1.00;;;;;;5017473;28;20210;-51
2021/08/25 08:02:30;;;;;;;7.63;4.70;;;18.60;1.00;;;;;;5023534;28;20290;-51
2021/08/25 08:04:57;;;;;;;5.00;4.50;;;18.60;1.00;;;;;;5016185;28;20220;-51
2021/08/25 08:07:24;;;;;;;5.97;4.20;;;18.90;1.00;;;;;;5019412;28;20292;-51
2021/08/25 08:09:51;;;;;;;7.47;4.90;;;19.00;1.00;;;;;;5018142;28;20293;-51
2021/08/25 08:12:17;;;;;;;6.63;4.40;;;19.20;1.00;;;;;;5021056;28;20220;-51
2021/08/25 08:14:44;;;;;;;8.03;4.60;;;19.10;1.00;;;;;;5020032;28;20610;-51
2021/08/25 08:17:11;;;;;;;6.17;4.27;;;19.10;99.90;;;;;;5017419;28;20193;-51
2021/08/25 08:19:38;;;;;;;7.07;4.10;;;19.10;1.00;;;;;;5021799;28;20224;-51
2021/08/25 08:22:05;;;;;;;6.03;3.77;;;19.30;1.00;;;;;;5019035;28;20283;-51
2021/08/25 08:24:32;;;;;;;4.93;3.60;;;19.30;99.90;;;;;;5017610;28;20370;-51
2021/08/25 08:26:59;;;;;;;5.43;3.70;;;19.60;99.90;;;;;;5017880;28;20240;-49
2021/08/25 08:29:28;;;;;;;5.33;3.60;;;19.90;1.00;;;;;;5017272;28;20287;-49
2021/08/25 08:31:54;;;;;;;6.40;3.30;;;19.80;1.00;;;;;;5016605;28;20224;-51
2021/08/25 08:34:21;;;;;;;4.17;3.33;;;20.00;1.00;;;;;;5020456;28;20660;-49
2021/08/25 08:36:48;;;;;;;6.30;3.83;;;20.00;1.00;;;;;;5026392;28;20282;-49
2021/08/25 08:39:15;;;;;;;5.50;3.63;;;19.80;99.90;;;;;;5020692;28;20236;-49
2021/08/25 08:41:42;;;;;;;5.13;3.60;;;20.10;1.00;;;;;;5020061;28;20216;-49
2021/08/25 08:44:11;;;;;;;4.47;3.13;;;20.10;99.90;;;;;;5016981;28;20302;-49
2021/08/25 08:46:42;;;;;;;6.50;3.57;;;20.10;99.90;;;;;;5022157;28;20304;-49
2021/08/25 08:49:10;;;;;;;7.00;3.17;;;20.30;99.90;;;;;;5010677;28;20262;-49
2021/08/25 08:51:40;;;;;;;5.43;2.80;;;20.50;99.90;;;;;;5016532;28;20193;-49
2021/08/25 08:54:07;;;;;;;6.10;2.83;;;20.70;1.00;;;;;;5017928;28;20232;-52
2021/08/25 08:56:34;;;;;;;4.57;2.77;;;20.60;1.00;;;;;;5019867;28;20311;-48
2021/08/25 08:59:02;;;;;;;6.47;3.47;;;21.20;1.00;;;;;;5015759;28;20480;-49
2021/08/25 09:01:30;;;;;;;6.27;2.80;;;21.40;1.00;;;;;;5015860;28;20271;-50
2021/08/25 09:03:58;;;;;;;4.43;2.83;;;21.30;1.00;;;;;;5016664;28;20314;-50
2021/08/25 09:06:45;;;;;;;4.17;2.77;;;21.40;1.00;;;;;;5016785;28;20331;-50
2021/08/25 09:09:12;;;;;;;3.67;2.33;;;21.30;1.00;;;;;;5017635;28;20251;-49
2021/08/25 09:11:53;;;;;;;4.23;2.73;;;21.00;1.00;;;;;;5017250;28;20292;-50
2021/08/25 09:14:23;;;;;;;4.50;2.67;;;21.70;1.00;;;;;;5017433;28;20560;-50
2021/08/25 09:16:50;;;;;;;3.13;1.93;;;21.90;1.00;;;;;;5017292;28;20311;-49
2021/08/25 09:19:18;;;;;;;3.50;2.20;;;22.20;99.90;;;;;;5016385;28;20274;-52
2021/08/25 09:21:49;;;;;;;4.83;1.80;;;22.30;99.90;;;;;;5020072;28;20236;-49
2021/08/25 09:24:36;;;;;;;3.53;2.07;;;22.20;99.90;;;;;;5017095;28;20305;-49
2021/08/25 09:27:16;;;;;;;4.67;2.07;;;22.00;99.90;;;;;;5017361;28;20443;-52
2021/08/25 09:29:53;;;;;;;4.07;2.20;;;22.10;99.90;;;;;;5017337;28;20209;-50
2021/08/25 09:32:22;;;;;;;3.77;2.50;;;22.30;99.90;;;;;;5015298;28;20224;-52
2021/08/25 09:34:57;;;;;;;3.30;1.87;;;22.40;99.90;;;;;;5016483;28;20523;-51
2021/08/25 09:37:25;;;;;;;2.70;1.73;;;22.60;99.90;;;;;;5018053;28;20940;-49
2021/08/25 09:39:54;;;;;;;3.00;2.10;;;22.40;99.90;;;;;;5017570;28;20295;-49
2021/08/25 09:42:46;;;;;;;4.17;2.10;;;22.60;99.90;;;;;;5019571;28;20215;-52
2021/08/25 09:45:15;;;;;;;4.20;2.57;;;22.20;99.90;;;;;;5017708;28;20220;-49
2021/08/25 09:47:48;;;;;;;5.43;2.07;;;21.90;99.90;;;;;;5018919;28;20197;-49
2021/08/25 09:50:17;;;;;;;2.80;1.93;;;21.70;99.90;;;;;;5016957;28;20251;-50
2021/08/25 09:52:44;;;;;;;3.87;2.00;;;22.00;99.90;;;;;;5018212;28;20331;-51
2021/08/25 09:55:12;;;;;;;2.93;2.10;;;22.20;99.90;;;;;;5019286;28;20316;-50
2021/08/25 09:57:41;;;;;;;2.80;1.80;;;22.40;99.90;;;;;;5016347;28;20709;-51
2021/08/25 10:00:10;;;;;;;5.40;2.03;;;22.20;99.90;;;;;;5015607;28;20198;-50
2021/08/25 10:02:37;;;;;;;4.33;1.63;;;22.20;99.90;;;;;;5016062;28;20234;-50
2021/08/25 10:05:05;;;;;;;2.67;2.10;;;22.40;99.90;;;;;;5013742;28;20197;-49
2021/08/25 10:07:34;;;;;;;3.40;2.00;;;22.40;99.90;;;;;;5014728;28;20197;-50
2021/08/25 10:10:01;;;;;;;2.97;1.53;;;22.20;99.90;;;;;;5015267;28;20284;-49
2021/08/25 10:12:28;;;;;;;4.47;2.07;;;22.10;1.00;;;;;;5014980;28;20747;-50
2021/08/25 10:14:55;;;;;;;4.47;2.00;;;22.20;1.00;;;;;;5011337;28;20301;-50
2021/08/25 10:17:41;;;;;;;3.47;2.20;;;22.20;99.90;;;;;;5014871;28;20216;-49
2021/08/25 10:20:33;;;;;;;4.00;2.00;;;22.30;72.70;;;;;;5014599;28;20213;-52
2021/08/25 10:23:02;;;;;;;3.57;1.97;;;21.60;99.90;;;;;;5011964;28;20286;-50
2021/08/25 10:25:29;;;;;;;1.83;1.30;;;21.50;99.90;;;;;;5018969;28;20623;-49
2021/08/25 10:28:02;;;;;;;5.47;2.20;;;21.70;99.90;;;;;;5019554;28;20272;-50
2021/08/25 10:30:29;;;;;;;3.30;1.53;;;21.50;76.00;;;;;;5015557;28;20748;-49
2021/08/25 10:33:06;;;;;;;3.83;1.63;;;21.50;99.90;;;;;;5013008;28;20247;-49
2021/08/25 10:35:34;;;;;;;2.97;1.87;;;21.70;99.90;;;;;;5017346;28;20232;-49
2021/08/25 10:38:22;;;;;;;7.77;2.47;;;21.70;92.80;;;;;;5016513;28;20228;-49
2021/08/25 10:40:51;;;;;;;4.00;1.93;;;22.00;99.90;;;;;;5016419;28;20343;-52
2021/08/25 10:43:35;;;;;;;2.90;1.73;;;22.10;99.90;;;;;;5019132;28;20367;-49
2021/08/25 10:46:04;;;;;;;3.53;2.17;;;21.90;99.90;;;;;;5020895;28;20681;-50
2021/08/25 10:48:49;;;;;;;3.60;2.03;;;21.80;99.90;;;;;;5016358;28;20679;-49
2021/08/25 10:51:37;;;;;;;4.33;2.07;;;21.70;99.90;;;;;;5018275;28;20223;-50
2021/08/25 10:54:07;;;;;;;3.50;2.27;;;21.70;99.90;;;;;;5015843;28;20228;-49
2021/08/25 10:56:45;;;;;;;5.30;2.23;;;21.90;99.90;;;;;;5017687;28;20304;-49
2021/08/25 10:59:17;;;;;;;3.73;1.97;;;22.10;99.90;;;;;;5019046;28;20360;-49
2021/08/25 11:01:45;;;;;;;3.33;1.90;;;22.10;99.90;;;;;;5017799;28;20208;-49
2021/08/25 11:04:18;;;;;;;6.47;2.47;;;22.30;99.90;;;;;;5016972;28;20279;-49
2021/08/25 11:06:51;;;;;;;3.57;1.90;;;22.50;99.90;;;;;;5018637;28;20332;-49
2021/08/25 11:09:21;;;;;;;3.93;1.73;;;22.30;99.90;;;;;;5017949;28;20656;-49
2021/08/25 11:11:58;;;;;;;2.60;1.90;;;22.60;99.90;;;;;;5021561;28;20302;-49
2021/08/25 11:14:35;;;;;;;3.47;2.10;;;22.80;99.90;;;;;;5018962;28;20854;-50
2021/08/25 11:17:11;;;;;;;3.23;1.77;;;22.60;99.90;;;;;;5019786;28;20239;-52
2021/08/25 11:19:40;;;;;;;2.87;1.67;;;22.70;99.90;;;;;;5017841;28;20316;-49
2021/08/25 11:22:34;;;;;;;4.57;2.10;;;22.90;99.90;;;;;;5020786;28;20294;-50
2021/08/25 11:25:05;;;;;;;3.23;1.97;;;23.10;1.00;;;;;;5021641;28;20303;-50
2021/08/25 11:27:47;;;;;;;2.83;2.00;;;23.10;26.50;;;;;;5022887;28;20212;-50
2021/08/25 11:30:28;;;;;;;3.37;2.10;;;23.30;9.60;;;;;;5021741;28;20228;-49
2021/08/25 11:33:10;;;;;;;3.63;2.07;;;23.50;1.00;;;;;;5021399;28;20224;-49
2021/08/25 11:35:45;;;;;;;4.27;2.37;;;23.50;1.00;;;;;;5020801;28;20490;-49
2021/08/25 11:38:18;;;;;;;3.30;1.93;;;23.60;1.00;;;;;;5021567;28;20541;-50
2021/08/25 11:40:47;;;;;;;2.87;2.03;;;23.70;1.00;;;;;;5020816;28;20235;-50
2021/08/25 11:43:15;;;;;;;4.90;2.53;;;23.90;1.00;;;;;;5016136;28;20390;-49
2021/08/25 11:45:44;;;;;;;4.67;2.63;;;24.20;1.00;;;;;;5017852;28;20270;-50
2021/08/25 11:48:11;;;;;;;5.77;2.17;;;24.10;1.00;;;;;;5019683;28;20584;-50
2021/08/25 11:50:44;;;;;;;4.00;2.23;;;23.50;24.30;;;;;;5021539;28;20228;-50
2021/08/25 11:53:13;;;;;;;3.37;2.37;;;23.70;1.00;;;;;;5020230;28;20325;-50
2021/08/25 11:55:40;;;;;;;4.90;2.50;;;24.20;1.00;;;;;;5019817;28;20359;-50
2021/08/25 11:58:24;;;;;;;4.10;2.43;;;24.00;1.00;;;;;;5022130;28;20328;-50
2021/08/25 12:00:52;;;;;;;4.13;2.57;;;24.20;1.00;;;;;;5020847;28;20588;-49
2021/08/25 12:03:21;;;;;;;3.23;2.10;;;24.60;1.00;;;;;;5019356;28;20232;-50
2021/08/25 12:05:52;;;;;;;4.00;2.23;;;24.80;1.00;;;;;;5020405;28;20201;-50
2021/08/25 12:08:19;;;;;;;2.77;2.10;;;24.80;1.00;;;;;;5018750;28;20200;-50
2021/08/25 12:11:04;;;;;;;3.60;2.40;;;25.30;1.00;;;;;;5012233;28;20505;-50
2021/08/25 12:13:36;;;;;;;5.20;2.57;;;25.30;1.00;;;;;;5009900;28;21006;-50
2021/08/25 12:16:10;;;;;;;4.53;2.67;;;24.60;1.00;;;;;;5013095;28;20215;-50
2021/08/25 12:19:06;;;;;;;6.60;2.93;;;24.60;1.00;;;;;;5022521;28;20208;-50
2021/08/25 12:21:35;;;;;;;4.20;2.67;;;24.90;1.00;;;;;;5021714;28;20208;-50
2021/08/25 12:24:05;;;;;;;5.33;3.13;;;25.30;1.00;;;;;;5019675;28;20541;-50
2021/08/25 12:26:34;;;;;;;6.37;3.30;;;24.80;12.20;;;;;;5020195;28;20963;-50
2021/08/25 12:29:03;;;;;;;5.00;2.97;;;24.70;99.90;;;;;;5024621;28;20258;-50
2021/08/25 12:31:31;;;;;;;3.53;2.60;;;25.20;1.00;;;;;;5024267;28;20669;-50
2021/08/25 12:34:05;;;;;;;4.33;2.73;;;25.50;1.00;;;;;;5016634;28;22035;-50
2021/08/25 12:36:42;;;;;;;4.73;2.33;;;25.80;1.00;;;;;;5022310;28;20331;-50
2021/08/25 12:39:13;;;;;;;5.93;3.47;;;25.70;1.00;;;;;;5018840;28;20208;-49
2021/08/25 12:41:42;;;;;;;4.30;3.30;;;25.20;1.00;;;;;;5019070;28;20559;-50
2021/08/25 12:44:10;;;;;;;4.27;2.80;;;25.20;1.00;;;;;;5019979;28;20211;-50
2021/08/25 12:47:00;;;;;;;3.97;2.70;;;25.50;1.00;;;;;;5019340;28;20323;-50
2021/08/25 12:49:29;;;;;;;5.47;2.97;;;24.90;1.00;;;;;;5018501;28;20204;-50
2021/08/25 12:51:57;;;;;;;5.10;3.03;;;24.70;1.00;;;;;;5020055;28;20366;-50
2021/08/25 12:54:24;;;;;;;5.00;2.43;;;25.00;1.00;;;;;;5018681;28;20325;-50
2021/08/25 12:56:52;;;;;;;5.73;3.07;;;25.20;1.00;;;;;;5017201;28;20212;-50
2021/08/25 12:59:19;;;;;;;5.30;4.17;;;25.90;1.00;;;;;;5020295;28;20203;-50
2021/08/25 13:01:47;;;;;;;6.80;3.97;;;25.60;1.00;;;;;;5019998;28;20302;-50